createdAt,value
2016-11-25T00:00:16.503Z,1017.3
2016-11-25T00:00:57.255Z,1017.31
2016-11-25T00:01:37.944Z,1017.34
2016-11-25T00:02:18.673Z,1017.36
2016-11-25T00:02:59.279Z,1017.33
2016-11-25T00:03:39.925Z,1017.41
2016-11-25T00:04:20.622Z,1017.44
2016-11-25T00:05:01.359Z,1017.47
2016-11-25T00:05:42.015Z,1017.45
2016-11-25T00:06:22.741Z,1017.52
2016-11-25T00:07:03.475Z,1017.52
2016-11-25T00:07:44.156Z,1017.48
2016-11-25T00:08:24.931Z,1017.52
2016-11-25T00:09:05.717Z,1017.55
2016-11-25T00:09:47.283Z,1017.55
2016-11-25T00:10:27.996Z,1017.54
2016-11-25T00:11:08.680Z,1017.54
2016-11-25T00:11:49.350Z,1017.45
2016-11-25T00:12:30.058Z,1017.44
2016-11-25T00:13:10.760Z,1017.42
2016-11-25T00:13:51.367Z,1017.37
2016-11-25T00:14:32.064Z,1017.37
2016-11-25T00:15:12.700Z,1017.39
2016-11-25T00:15:53.403Z,1017.34
2016-11-25T00:16:34.088Z,1017.43
2016-11-25T00:17:14.762Z,1017.43
2016-11-25T00:17:56.229Z,1017.43
2016-11-25T00:18:36.176Z,1017.45
2016-11-25T00:19:16.744Z,1017.43
2016-11-25T00:19:57.618Z,1017.41
2016-11-25T00:20:38.295Z,1017.54
2016-11-25T00:21:18.887Z,1017.5
2016-11-25T00:21:59.574Z,1017.46
2016-11-25T00:22:40.238Z,1017.49
2016-11-25T00:23:20.898Z,1017.54
2016-11-25T00:24:01.596Z,1017.5
2016-11-25T00:24:42.345Z,1017.56
2016-11-25T00:25:23.029Z,1017.55
2016-11-25T00:26:03.730Z,1017.53
2016-11-25T00:26:44.419Z,1017.55
2016-11-25T00:27:25.103Z,1017.59
2016-11-25T00:28:05.726Z,1017.55
2016-11-25T00:28:46.429Z,1017.57
2016-11-25T00:29:27.109Z,1017.54
2016-11-25T00:30:07.822Z,1017.53
2016-11-25T00:30:48.647Z,1017.57
2016-11-25T00:31:29.435Z,1017.52
2016-11-25T00:32:10.133Z,1017.55
2016-11-25T00:32:50.794Z,1017.53
2016-11-25T00:33:31.451Z,1017.57
2016-11-25T00:34:12.154Z,1017.54
2016-11-25T00:34:52.881Z,1017.55
2016-11-25T00:35:33.545Z,1017.55
2016-11-25T00:36:14.302Z,1017.58
2016-11-25T00:36:54.988Z,1017.55
2016-11-25T00:37:35.697Z,1017.55
2016-11-25T00:38:16.666Z,1017.49
2016-11-25T00:38:57.332Z,1017.5
2016-11-25T00:39:38.030Z,1017.54
2016-11-25T00:40:18.786Z,1017.5
2016-11-25T00:40:59.434Z,1017.55
2016-11-25T00:41:40.171Z,1017.52
2016-11-25T00:42:20.911Z,1017.52
2016-11-25T00:43:01.687Z,1017.55
2016-11-25T00:43:42.396Z,1017.47
2016-11-25T00:44:23.148Z,1017.55
2016-11-25T00:45:03.836Z,1017.53
2016-11-25T00:45:44.796Z,1017.43
2016-11-25T00:46:25.541Z,1017.46
2016-11-25T00:47:06.310Z,1017.46
2016-11-25T00:47:46.981Z,1017.47
2016-11-25T00:48:27.645Z,1017.47
2016-11-25T00:49:08.250Z,1017.49
2016-11-25T00:49:48.869Z,1017.45
2016-11-25T00:50:29.697Z,1017.51
2016-11-25T00:51:10.506Z,1017.53
2016-11-25T00:51:51.249Z,1017.49
2016-11-25T00:52:31.973Z,1017.57
2016-11-25T00:53:12.677Z,1017.58
2016-11-25T00:53:53.326Z,1017.55
2016-11-25T00:54:34.017Z,1017.59
2016-11-25T00:55:14.663Z,1017.57
2016-11-25T00:55:55.306Z,1017.55
2016-11-25T00:56:35.955Z,1017.57
2016-11-25T00:57:16.599Z,1017.56
2016-11-25T00:57:57.189Z,1017.57
2016-11-25T00:58:37.836Z,1017.54
2016-11-25T00:59:18.480Z,1017.56
2016-11-25T00:59:59.198Z,1017.56
2016-11-25T01:00:39.918Z,1017.54
2016-11-25T01:01:20.638Z,1017.51
2016-11-25T01:02:01.404Z,1017.55
2016-11-25T01:02:42.038Z,1017.58
2016-11-25T01:03:22.778Z,1017.57
2016-11-25T01:04:03.423Z,1017.59
2016-11-25T01:04:44.138Z,1017.57
2016-11-25T01:05:24.799Z,1017.58
2016-11-25T01:06:05.456Z,1017.62
2016-11-25T01:06:46.097Z,1017.56
2016-11-25T01:07:26.736Z,1017.55
2016-11-25T01:08:07.481Z,1017.53
2016-11-25T01:08:48.229Z,1017.52
2016-11-25T01:09:29.091Z,1017.53
2016-11-25T01:10:09.859Z,1017.54
2016-11-25T01:10:50.546Z,1017.54
2016-11-25T01:11:31.188Z,1017.56
2016-11-25T01:12:11.821Z,1017.55
2016-11-25T01:12:52.486Z,1017.53
2016-11-25T01:13:33.209Z,1017.56
2016-11-25T01:14:13.909Z,1017.53
2016-11-25T01:14:54.651Z,1017.53
2016-11-25T01:15:35.350Z,1017.55
2016-11-25T01:16:16.144Z,1017.46
2016-11-25T01:16:56.798Z,1017.49
2016-11-25T01:17:37.455Z,1017.46
2016-11-25T01:18:18.109Z,1017.43
2016-11-25T01:18:58.666Z,1017.4
2016-11-25T01:19:39.243Z,1017.37
2016-11-25T01:20:20.043Z,1017.38
2016-11-25T01:21:00.887Z,1017.37
2016-11-25T01:21:41.584Z,1017.3
2016-11-25T01:22:22.323Z,1017.36
2016-11-25T01:23:02.888Z,1017.31
2016-11-25T01:23:43.670Z,1017.34
2016-11-25T01:24:24.391Z,1017.29
2016-11-25T01:25:05.006Z,1017.29
2016-11-25T01:25:45.647Z,1017.31
2016-11-25T01:26:26.307Z,1017.36
2016-11-25T01:27:06.926Z,1017.32
2016-11-25T01:27:47.629Z,1017.37
2016-11-25T01:28:28.406Z,1017.33
2016-11-25T01:29:09.114Z,1017.33
2016-11-25T01:29:49.761Z,1017.32
2016-11-25T01:30:30.464Z,1017.28
2016-11-25T01:31:11.144Z,1017.28
2016-11-25T01:31:51.777Z,1017.23
2016-11-25T01:32:32.385Z,1017.26
2016-11-25T01:33:13.056Z,1017.24
2016-11-25T01:33:53.805Z,1017.27
2016-11-25T01:34:34.430Z,1017.25
2016-11-25T01:35:15.038Z,1017.28
2016-11-25T01:35:55.804Z,1017.29
2016-11-25T01:36:36.537Z,1017.24
2016-11-25T01:37:17.302Z,1017.26
2016-11-25T01:37:58.030Z,1017.25
2016-11-25T01:38:38.770Z,1017.25
2016-11-25T01:39:19.398Z,1017.3
2016-11-25T01:40:00.067Z,1017.35
2016-11-25T01:40:40.855Z,1017.29
2016-11-25T01:41:21.515Z,1017.31
2016-11-25T01:42:02.136Z,1017.31
2016-11-25T01:42:42.918Z,1017.25
2016-11-25T01:43:23.631Z,1017.27
2016-11-25T01:44:04.443Z,1017.23
2016-11-25T01:44:45.116Z,1017.25
2016-11-25T01:45:25.883Z,1017.21
2016-11-25T01:46:06.535Z,1017.18
2016-11-25T01:46:47.167Z,1017.13
2016-11-25T01:47:27.884Z,1017.08
2016-11-25T01:48:08.550Z,1017.07
2016-11-25T01:48:49.266Z,1017.05
2016-11-25T01:49:29.954Z,1017.04
2016-11-25T01:50:10.772Z,1017.03
2016-11-25T01:50:51.532Z,1017
2016-11-25T01:51:32.304Z,1017.01
2016-11-25T01:52:12.979Z,1016.99
2016-11-25T01:52:53.814Z,1017.01
2016-11-25T01:53:34.494Z,1016.97
2016-11-25T01:54:15.318Z,1016.96
2016-11-25T01:54:56.105Z,1016.96
2016-11-25T01:55:37.757Z,1016.93
2016-11-25T01:56:18.619Z,1016.88
2016-11-25T01:56:59.434Z,1016.84
2016-11-25T01:57:40.191Z,1016.86
2016-11-25T01:58:20.928Z,1016.82
2016-11-25T01:59:01.662Z,1016.87
2016-11-25T01:59:42.311Z,1016.83
2016-11-25T02:00:23.004Z,1016.85
2016-11-25T02:01:03.695Z,1016.84
2016-11-25T02:01:44.441Z,1016.81
2016-11-25T02:02:25.113Z,1016.82
2016-11-25T02:03:05.691Z,1016.83
2016-11-25T02:03:46.422Z,1016.83
2016-11-25T02:04:27.981Z,1016.81
2016-11-25T02:05:08.651Z,1016.84
2016-11-25T02:05:49.351Z,1016.84
2016-11-25T02:06:29.987Z,1016.85
2016-11-25T02:07:10.705Z,1016.83
2016-11-25T02:07:51.341Z,1016.83
2016-11-25T02:08:32.045Z,1016.84
2016-11-25T02:09:12.866Z,1016.82
2016-11-25T02:09:53.553Z,1016.81
2016-11-25T02:10:34.204Z,1016.79
2016-11-25T02:11:14.996Z,1016.84
2016-11-25T02:11:55.728Z,1016.87
2016-11-25T02:12:36.494Z,1016.8
2016-11-25T02:13:17.106Z,1016.83
2016-11-25T02:13:57.784Z,1016.82
2016-11-25T02:14:38.409Z,1016.87
2016-11-25T02:15:19.202Z,1016.89
2016-11-25T02:15:59.859Z,1016.94
2016-11-25T02:16:40.616Z,1016.98
2016-11-25T02:17:21.209Z,1016.95
2016-11-25T02:18:02.005Z,1016.96
2016-11-25T02:18:42.621Z,1016.98
2016-11-25T02:19:23.352Z,1016.95
2016-11-25T02:20:04.028Z,1016.96
2016-11-25T02:20:44.694Z,1016.94
2016-11-25T02:21:25.248Z,1016.96
2016-11-25T02:22:05.885Z,1016.93
2016-11-25T02:22:46.537Z,1016.96
2016-11-25T02:23:27.153Z,1016.93
2016-11-25T02:24:08.445Z,1016.91
2016-11-25T02:24:49.121Z,1016.93
2016-11-25T02:25:29.814Z,1016.92
2016-11-25T02:26:10.483Z,1016.98
2016-11-25T02:26:51.141Z,1016.99
2016-11-25T02:27:31.757Z,1017
2016-11-25T02:28:12.391Z,1017.07
2016-11-25T02:28:53.089Z,1016.99
2016-11-25T02:29:33.790Z,1017.03
2016-11-25T02:30:14.376Z,1017.05
2016-11-25T02:30:55.149Z,1017.11
2016-11-25T02:33:08.582Z,1017.06
2016-11-25T02:33:49.250Z,1017.06
2016-11-25T02:34:30.212Z,1017.08
2016-11-25T02:35:11.035Z,1017.01
2016-11-25T02:35:51.696Z,1016.99
2016-11-25T02:36:32.276Z,1017
2016-11-25T02:37:12.878Z,1017.01
2016-11-25T02:37:53.605Z,1017
2016-11-25T02:38:34.274Z,1017.01
2016-11-25T02:39:14.937Z,1016.95
2016-11-25T02:39:55.594Z,1016.99
2016-11-25T02:40:36.220Z,1016.94
2016-11-25T02:41:16.949Z,1016.9
2016-11-25T02:41:57.553Z,1016.95
2016-11-25T02:42:38.197Z,1016.89
2016-11-25T02:43:18.843Z,1016.92
2016-11-25T02:43:59.714Z,1016.93
2016-11-25T02:44:40.581Z,1017.01
2016-11-25T02:45:21.409Z,1017.04
2016-11-25T02:46:02.430Z,1017
2016-11-25T02:46:43.245Z,1016.97
2016-11-25T02:47:24.225Z,1017.04
2016-11-25T02:48:05.098Z,1017.01
2016-11-25T02:48:45.903Z,1016.99
2016-11-25T02:49:26.536Z,1017.01
2016-11-25T02:50:07.304Z,1016.98
2016-11-25T02:50:47.995Z,1016.91
2016-11-25T02:51:28.803Z,1016.94
2016-11-25T02:52:09.545Z,1016.96
2016-11-25T02:52:50.460Z,1016.87
2016-11-25T02:53:31.233Z,1016.84
2016-11-25T02:54:11.926Z,1016.81
2016-11-25T02:54:52.831Z,1016.81
2016-11-25T02:55:33.672Z,1016.79
2016-11-25T02:56:14.316Z,1016.8
2016-11-25T02:56:55.245Z,1016.8
2016-11-25T02:57:36.073Z,1016.8
2016-11-25T02:58:16.758Z,1016.84
2016-11-25T02:58:57.477Z,1016.82
2016-11-25T02:59:38.376Z,1016.8
2016-11-25T03:00:19.072Z,1016.85
2016-11-25T03:02:47.525Z,1016.75
2016-11-25T03:03:28.281Z,1016.75
2016-11-25T03:04:09.124Z,1016.74
2016-11-25T03:04:49.880Z,1016.74
2016-11-25T03:05:30.536Z,1016.74
2016-11-25T03:06:11.239Z,1016.71
2016-11-25T03:06:51.947Z,1016.7
2016-11-25T03:07:32.746Z,1016.74
2016-11-25T03:08:13.602Z,1016.66
2016-11-25T03:08:54.506Z,1016.65
2016-11-25T03:09:35.333Z,1016.65
2016-11-25T03:10:16.366Z,1016.62
2016-11-25T03:10:57.150Z,1016.64
2016-11-25T03:11:38.106Z,1016.58
2016-11-25T03:12:19.597Z,1016.62
2016-11-25T03:13:00.397Z,1016.59
2016-11-25T03:13:41.198Z,1016.6
2016-11-25T03:14:22.087Z,1016.56
2016-11-25T03:15:03.049Z,1016.6
2016-11-25T03:15:43.725Z,1016.61
2016-11-25T03:16:24.490Z,1016.6
2016-11-25T03:17:05.196Z,1016.63
2016-11-25T03:17:46.075Z,1016.67
2016-11-25T03:18:27.038Z,1016.7
2016-11-25T03:19:07.839Z,1016.67
2016-11-25T03:19:48.785Z,1016.72
2016-11-25T03:20:29.690Z,1016.68
2016-11-25T03:22:48.510Z,1016.65
2016-11-25T03:23:29.278Z,1016.65
2016-11-25T03:24:09.991Z,1016.64
2016-11-25T03:24:50.705Z,1016.59
2016-11-25T03:25:31.616Z,1016.53
2016-11-25T03:26:12.532Z,1016.5
2016-11-25T03:26:53.399Z,1016.43
2016-11-25T03:27:34.480Z,1016.47
2016-11-25T03:28:15.438Z,1016.44
2016-11-25T03:28:56.552Z,1016.43
2016-11-25T03:29:37.434Z,1016.44
2016-11-25T03:30:18.351Z,1016.5
2016-11-25T03:30:59.225Z,1016.51
2016-11-25T03:31:40.266Z,1016.51
2016-11-25T03:32:21.348Z,1016.5
2016-11-25T03:33:02.153Z,1016.49
2016-11-25T03:33:43.075Z,1016.5
2016-11-25T03:34:23.924Z,1016.51
2016-11-25T03:35:04.765Z,1016.51
2016-11-25T03:35:45.834Z,1016.49
2016-11-25T03:36:26.553Z,1016.47
2016-11-25T03:37:07.472Z,1016.51
2016-11-25T03:37:48.711Z,1016.51
2016-11-25T03:38:29.846Z,1016.51
2016-11-25T03:39:10.925Z,1016.51
2016-11-25T03:39:52.003Z,1016.55
2016-11-25T03:40:32.974Z,1016.52
2016-11-25T03:41:14.016Z,1016.47
2016-11-25T03:41:54.827Z,1016.48
2016-11-25T03:42:36.139Z,1016.45
2016-11-25T03:43:16.967Z,1016.47
2016-11-25T03:43:57.962Z,1016.45
2016-11-25T03:44:38.716Z,1016.44
2016-11-25T03:45:19.771Z,1016.5
2016-11-25T03:46:00.656Z,1016.5
2016-11-25T03:46:41.440Z,1016.52
2016-11-25T03:47:22.742Z,1016.46
2016-11-25T03:48:03.594Z,1016.48
2016-11-25T03:48:44.620Z,1016.46
2016-11-25T03:49:25.368Z,1016.52
2016-11-25T03:50:06.279Z,1016.52
2016-11-25T03:50:47.343Z,1016.59
2016-11-25T03:51:28.105Z,1016.59
2016-11-25T03:52:09.127Z,1016.65
2016-11-25T03:52:50.467Z,1016.65
2016-11-25T03:53:31.551Z,1016.64
2016-11-25T03:54:12.700Z,1016.7
2016-11-25T03:54:53.740Z,1016.69
2016-11-25T03:55:34.796Z,1016.77
2016-11-25T03:56:16.062Z,1016.78
2016-11-25T03:56:57.223Z,1016.78
2016-11-25T03:57:38.320Z,1016.76
2016-11-25T03:58:19.346Z,1016.81
2016-11-25T03:59:00.355Z,1016.82
2016-11-25T03:59:41.315Z,1016.83
2016-11-25T04:00:22.268Z,1016.83
2016-11-25T04:01:03.009Z,1016.81
2016-11-25T04:01:44.112Z,1016.83
2016-11-25T04:02:25.257Z,1016.81
2016-11-25T04:03:06.540Z,1016.8
2016-11-25T04:03:47.704Z,1016.82
2016-11-25T04:04:28.906Z,1016.79
2016-11-25T04:05:09.945Z,1016.84
2016-11-25T04:05:51.141Z,1016.82
2016-11-25T04:06:32.025Z,1016.75
2016-11-25T04:07:13.022Z,1016.73
2016-11-25T04:07:53.869Z,1016.76
2016-11-25T04:08:35.225Z,1016.78
2016-11-25T04:09:16.336Z,1016.76
2016-11-25T04:09:57.466Z,1016.8
2016-11-25T04:10:38.559Z,1016.76
2016-11-25T04:11:19.693Z,1016.74
2016-11-25T04:12:00.532Z,1016.76
2016-11-25T04:12:41.472Z,1016.78
2016-11-25T04:13:22.498Z,1016.76
2016-11-25T04:14:03.476Z,1016.78
2016-11-25T04:14:45.089Z,1016.75
2016-11-25T04:15:26.053Z,1016.8
2016-11-25T04:16:07.106Z,1016.78
2016-11-25T04:16:48.409Z,1016.82
2016-11-25T04:17:29.219Z,1016.81
2016-11-25T04:18:10.557Z,1016.78
2016-11-25T04:18:51.607Z,1016.79
2016-11-25T04:19:33.845Z,1016.78
2016-11-25T04:20:14.992Z,1016.77
2016-11-25T04:20:55.870Z,1016.75
2016-11-25T04:21:36.731Z,1016.73
2016-11-25T04:22:17.920Z,1016.74
2016-11-25T04:22:59.034Z,1016.71
2016-11-25T04:23:39.974Z,1016.69
2016-11-25T04:24:21.426Z,1016.71
2016-11-25T04:25:02.589Z,1016.67
2016-11-25T04:25:43.531Z,1016.69
2016-11-25T04:26:24.320Z,1016.7
2016-11-25T04:27:05.328Z,1016.73
2016-11-25T04:27:46.265Z,1016.73
2016-11-25T04:28:27.655Z,1016.73
2016-11-25T04:29:08.407Z,1016.72
2016-11-25T04:29:49.910Z,1016.73
2016-11-25T04:30:31.050Z,1016.72
2016-11-25T04:31:12.377Z,1016.71
2016-11-25T04:31:53.552Z,1016.68
2016-11-25T04:32:34.771Z,1016.66
2016-11-25T04:33:16.120Z,1016.65
2016-11-25T04:33:56.849Z,1016.64
2016-11-25T04:34:37.918Z,1016.66
2016-11-25T04:35:19.030Z,1016.65
2016-11-25T04:35:59.656Z,1016.62
2016-11-25T04:36:40.842Z,1016.62
2016-11-25T04:37:21.912Z,1016.64
2016-11-25T04:38:02.653Z,1016.65
2016-11-25T04:38:43.524Z,1016.63
2016-11-25T04:39:24.293Z,1016.61
2016-11-25T04:40:05.240Z,1016.64
2016-11-25T04:40:46.198Z,1016.58
2016-11-25T04:41:27.199Z,1016.59
2016-11-25T04:42:07.978Z,1016.61
2016-11-25T04:42:48.894Z,1016.59
2016-11-25T04:43:30.134Z,1016.59
2016-11-25T04:44:11.015Z,1016.63
2016-11-25T04:44:52.031Z,1016.67
2016-11-25T04:45:33.132Z,1016.69
2016-11-25T04:46:14.029Z,1016.69
2016-11-25T04:46:55.180Z,1016.73
2016-11-25T04:47:36.276Z,1016.72
2016-11-25T04:48:17.736Z,1016.74
2016-11-25T04:48:59.015Z,1016.68
2016-11-25T04:49:39.971Z,1016.72
2016-11-25T04:50:21.119Z,1016.7
2016-11-25T04:51:01.921Z,1016.7
2016-11-25T04:52:59.699Z,1016.68
2016-11-25T04:53:40.826Z,1016.71
2016-11-25T04:54:21.601Z,1016.72
2016-11-25T04:55:02.759Z,1016.67
2016-11-25T04:55:43.491Z,1016.72
2016-11-25T04:56:24.660Z,1016.73
2016-11-25T04:57:05.490Z,1016.77
2016-11-25T04:57:46.330Z,1016.8
2016-11-25T04:58:27.358Z,1016.83
2016-11-25T04:59:08.598Z,1016.8
2016-11-25T04:59:49.595Z,1016.8
2016-11-25T05:00:30.899Z,1016.79
2016-11-25T05:01:11.950Z,1016.69
2016-11-25T05:01:53.007Z,1016.7
2016-11-25T05:02:33.677Z,1016.77
2016-11-25T05:03:14.963Z,1016.73
2016-11-25T05:03:55.822Z,1016.79
2016-11-25T05:04:36.833Z,1016.75
2016-11-25T05:05:17.764Z,1016.79
2016-11-25T05:05:58.910Z,1016.77
2016-11-25T05:06:40.025Z,1016.76
2016-11-25T05:07:21.075Z,1016.76
2016-11-25T05:08:02.274Z,1016.77
2016-11-25T05:08:43.693Z,1016.75
2016-11-25T05:09:24.419Z,1016.79
2016-11-25T05:10:05.842Z,1016.83
2016-11-25T05:10:47.085Z,1016.84
2016-11-25T05:11:28.104Z,1016.8
2016-11-25T05:12:09.017Z,1016.82
2016-11-25T05:12:50.053Z,1016.85
2016-11-25T05:13:30.742Z,1016.82
2016-11-25T05:14:11.863Z,1016.79
2016-11-25T05:14:53.116Z,1016.74
2016-11-25T05:15:34.192Z,1016.79
2016-11-25T05:16:15.194Z,1016.76
2016-11-25T05:16:56.254Z,1016.77
2016-11-25T05:17:37.252Z,1016.78
2016-11-25T05:18:18.681Z,1016.76
2016-11-25T05:18:59.538Z,1016.76
2016-11-25T05:19:40.608Z,1016.71
2016-11-25T05:20:21.532Z,1016.7
2016-11-25T05:21:02.733Z,1016.69
2016-11-25T05:21:43.665Z,1016.69
2016-11-25T05:22:24.470Z,1016.66
2016-11-25T05:23:05.442Z,1016.65
2016-11-25T05:23:46.647Z,1016.66
2016-11-25T05:24:27.511Z,1016.67
2016-11-25T05:25:08.521Z,1016.64
2016-11-25T05:25:49.369Z,1016.66
2016-11-25T05:26:30.509Z,1016.66
2016-11-25T05:27:11.409Z,1016.65
2016-11-25T05:27:52.612Z,1016.65
2016-11-25T05:28:33.501Z,1016.6
2016-11-25T05:29:14.645Z,1016.6
2016-11-25T05:29:55.318Z,1016.59
2016-11-25T05:30:36.220Z,1016.61
2016-11-25T05:31:17.134Z,1016.57
2016-11-25T05:31:58.077Z,1016.56
2016-11-25T05:32:39.144Z,1016.61
2016-11-25T05:33:19.914Z,1016.57
2016-11-25T05:34:00.876Z,1016.57
2016-11-25T05:34:41.935Z,1016.52
2016-11-25T05:35:22.833Z,1016.49
2016-11-25T05:36:03.911Z,1016.49
2016-11-25T05:36:44.877Z,1016.44
2016-11-25T05:37:26.012Z,1016.45
2016-11-25T05:38:06.783Z,1016.46
2016-11-25T05:38:47.803Z,1016.42
2016-11-25T05:39:28.756Z,1016.4
2016-11-25T05:40:09.719Z,1016.44
2016-11-25T05:40:50.734Z,1016.44
2016-11-25T05:41:31.743Z,1016.44
2016-11-25T05:42:12.551Z,1016.43
2016-11-25T05:42:53.571Z,1016.44
2016-11-25T05:43:34.610Z,1016.44
2016-11-25T05:44:15.454Z,1016.44
2016-11-25T05:44:56.427Z,1016.45
2016-11-25T05:45:37.302Z,1016.45
2016-11-25T05:46:18.384Z,1016.44
2016-11-25T05:46:59.107Z,1016.42
2016-11-25T05:47:39.959Z,1016.35
2016-11-25T05:48:20.769Z,1016.37
2016-11-25T05:49:01.645Z,1016.39
2016-11-25T05:49:42.532Z,1016.37
2016-11-25T05:50:23.273Z,1016.31
2016-11-25T05:51:04.255Z,1016.3
2016-11-25T05:51:45.105Z,1016.28
2016-11-25T05:52:25.910Z,1016.3
2016-11-25T05:53:06.681Z,1016.32
2016-11-25T05:53:47.458Z,1016.3
2016-11-25T05:54:28.259Z,1016.31
2016-11-25T05:55:09.201Z,1016.28
2016-11-25T05:55:50.236Z,1016.23
2016-11-25T05:56:31.258Z,1016.21
2016-11-25T05:57:12.077Z,1016.25
2016-11-25T05:57:52.920Z,1016.27
2016-11-25T05:58:33.929Z,1016.26
2016-11-25T05:59:14.847Z,1016.26
2016-11-25T05:59:55.604Z,1016.27
2016-11-25T06:00:36.386Z,1016.25
2016-11-25T06:01:17.177Z,1016.32
2016-11-25T06:01:58.102Z,1016.28
2016-11-25T06:02:38.986Z,1016.27
2016-11-25T06:03:19.790Z,1016.24
2016-11-25T06:04:00.805Z,1016.3
2016-11-25T06:04:41.407Z,1016.3
2016-11-25T06:05:22.380Z,1016.3
2016-11-25T06:06:03.361Z,1016.29
2016-11-25T06:06:44.254Z,1016.28
2016-11-25T06:07:25.090Z,1016.25
2016-11-25T06:08:05.857Z,1016.23
2016-11-25T06:08:46.695Z,1016.26
2016-11-25T06:09:27.365Z,1016.24
2016-11-25T06:10:08.301Z,1016.25
2016-11-25T06:10:49.212Z,1016.28
2016-11-25T06:11:30.285Z,1016.27
2016-11-25T06:12:11.428Z,1016.26
2016-11-25T06:12:52.083Z,1016.28
2016-11-25T06:13:32.974Z,1016.28
2016-11-25T06:14:13.886Z,1016.27
2016-11-25T06:14:54.651Z,1016.2
2016-11-25T06:15:35.471Z,1016.24
2016-11-25T06:16:16.307Z,1016.21
2016-11-25T06:16:57.269Z,1016.2
2016-11-25T06:17:38.142Z,1016.23
2016-11-25T06:18:19.052Z,1016.25
2016-11-25T06:18:59.889Z,1016.27
2016-11-25T06:19:40.725Z,1016.3
2016-11-25T06:20:21.696Z,1016.28
2016-11-25T06:21:02.760Z,1016.35
2016-11-25T06:21:43.475Z,1016.3
2016-11-25T06:22:24.421Z,1016.29
2016-11-25T06:23:05.288Z,1016.31
2016-11-25T06:23:46.232Z,1016.26
2016-11-25T06:24:27.251Z,1016.3
2016-11-25T06:25:08.134Z,1016.31
2016-11-25T06:25:49.097Z,1016.33
2016-11-25T06:26:30.091Z,1016.42
2016-11-25T06:27:10.976Z,1016.35
2016-11-25T06:27:51.717Z,1016.39
2016-11-25T06:28:32.469Z,1016.43
2016-11-25T06:29:13.246Z,1016.43
2016-11-25T06:29:54.030Z,1016.46
2016-11-25T06:30:34.925Z,1016.45
2016-11-25T06:31:15.842Z,1016.43
2016-11-25T06:31:56.831Z,1016.41
2016-11-25T06:32:37.598Z,1016.34
2016-11-25T06:33:18.355Z,1016.37
2016-11-25T06:33:59.272Z,1016.39
2016-11-25T06:34:40.110Z,1016.41
2016-11-25T06:35:20.954Z,1016.34
2016-11-25T06:36:01.747Z,1016.41
2016-11-25T06:36:42.673Z,1016.39
2016-11-25T06:37:23.834Z,1016.43
2016-11-25T06:38:04.780Z,1016.37
2016-11-25T06:38:45.304Z,1016.41
2016-11-25T06:39:26.165Z,1016.42
2016-11-25T06:40:06.913Z,1016.45
2016-11-25T06:40:47.578Z,1016.48
2016-11-25T06:41:28.196Z,1016.46
2016-11-25T06:42:09.234Z,1016.55
2016-11-25T06:42:49.969Z,1016.51
2016-11-25T06:43:30.635Z,1016.56
2016-11-25T06:44:11.470Z,1016.52
2016-11-25T06:44:52.146Z,1016.49
2016-11-25T06:45:33.008Z,1016.47
2016-11-25T06:46:13.803Z,1016.45
2016-11-25T06:46:54.569Z,1016.58
2016-11-25T06:47:35.494Z,1016.6
2016-11-25T06:48:16.504Z,1016.58
2016-11-25T06:48:57.302Z,1016.55
2016-11-25T06:49:38.329Z,1016.54
2016-11-25T06:50:19.034Z,1016.54
2016-11-25T06:50:59.994Z,1016.52
2016-11-25T06:51:40.931Z,1016.5
2016-11-25T06:52:21.733Z,1016.52
2016-11-25T06:53:02.919Z,1016.51
2016-11-25T06:53:43.801Z,1016.54
2016-11-25T06:54:24.597Z,1016.53
2016-11-25T06:55:05.376Z,1016.48
2016-11-25T06:55:46.095Z,1016.52
2016-11-25T06:56:26.944Z,1016.53
2016-11-25T06:57:07.539Z,1016.58
2016-11-25T06:57:48.324Z,1016.62
2016-11-25T06:58:29.023Z,1016.63
2016-11-25T06:59:09.820Z,1016.7
2016-11-25T06:59:50.679Z,1016.66
2016-11-25T07:00:31.622Z,1016.61
2016-11-25T07:01:12.514Z,1016.64
2016-11-25T07:01:53.350Z,1016.62
2016-11-25T07:02:34.246Z,1016.65
2016-11-25T07:03:15.270Z,1016.68
2016-11-25T07:03:56.157Z,1016.7
2016-11-25T07:04:37.033Z,1016.69
2016-11-25T07:05:17.952Z,1016.62
2016-11-25T07:05:58.856Z,1016.6
2016-11-25T07:06:39.681Z,1016.62
2016-11-25T07:07:20.300Z,1016.62
2016-11-25T07:08:01.230Z,1016.65
2016-11-25T07:08:42.088Z,1016.65
2016-11-25T07:09:22.951Z,1016.64
2016-11-25T07:10:03.843Z,1016.63
2016-11-25T07:10:44.889Z,1016.61
2016-11-25T07:11:25.856Z,1016.67
2016-11-25T07:12:06.607Z,1016.62
2016-11-25T07:12:47.543Z,1016.65
2016-11-25T07:13:28.518Z,1016.65
2016-11-25T07:14:09.255Z,1016.65
2016-11-25T07:14:50.829Z,1016.63
2016-11-25T07:15:31.947Z,1016.62
2016-11-25T07:16:12.733Z,1016.64
2016-11-25T07:16:53.697Z,1016.71
2016-11-25T07:17:34.672Z,1016.71
2016-11-25T07:18:15.484Z,1016.68
2016-11-25T07:18:56.270Z,1016.71
2016-11-25T07:19:37.256Z,1016.67
2016-11-25T07:20:18.329Z,1016.7
2016-11-25T07:20:59.127Z,1016.69
2016-11-25T07:21:39.915Z,1016.67
2016-11-25T07:22:20.615Z,1016.72
2016-11-25T07:23:01.801Z,1016.68
2016-11-25T07:23:42.748Z,1016.7
2016-11-25T07:24:23.489Z,1016.78
2016-11-25T07:25:04.543Z,1016.73
2016-11-25T07:25:45.583Z,1016.71
2016-11-25T07:26:26.613Z,1016.73
2016-11-25T07:27:07.640Z,1016.72
2016-11-25T07:27:48.601Z,1016.67
2016-11-25T07:28:29.567Z,1016.69
2016-11-25T07:29:12.009Z,1016.75
2016-11-25T07:29:51.936Z,1016.71
2016-11-25T07:30:32.987Z,1016.72
2016-11-25T07:31:13.943Z,1016.77
2016-11-25T07:31:54.612Z,1016.74
2016-11-25T07:32:35.619Z,1016.77
2016-11-25T07:33:16.456Z,1016.74
2016-11-25T07:33:57.309Z,1016.77
2016-11-25T07:34:38.142Z,1016.73
2016-11-25T07:35:18.917Z,1016.77
2016-11-25T07:35:59.780Z,1016.79
2016-11-25T07:36:40.442Z,1016.73
2016-11-25T07:37:21.379Z,1016.75
2016-11-25T07:39:20.153Z,1016.7
2016-11-25T07:40:01.383Z,1016.71
2016-11-25T07:40:42.247Z,1016.72
2016-11-25T07:41:24.074Z,1016.72
2016-11-25T07:42:05.355Z,1016.74
2016-11-25T07:42:46.340Z,1016.74
2016-11-25T07:43:27.289Z,1016.75
2016-11-25T07:44:08.133Z,1016.81
2016-11-25T07:44:48.951Z,1016.76
2016-11-25T07:45:29.711Z,1016.79
2016-11-25T07:46:10.714Z,1016.76
2016-11-25T07:46:51.628Z,1016.79
2016-11-25T07:47:32.437Z,1016.76
2016-11-25T07:48:13.442Z,1016.75
2016-11-25T07:48:54.176Z,1016.84
2016-11-25T07:49:35.157Z,1016.8
2016-11-25T07:50:16.081Z,1016.82
2016-11-25T07:50:57.120Z,1016.84
2016-11-25T07:51:37.952Z,1016.85
2016-11-25T07:52:18.829Z,1016.81
2016-11-25T07:52:59.599Z,1016.82
2016-11-25T07:53:40.282Z,1016.8
2016-11-25T07:54:21.238Z,1016.82
2016-11-25T07:55:02.204Z,1016.83
2016-11-25T07:55:43.280Z,1016.81
2016-11-25T07:56:23.981Z,1016.84
2016-11-25T07:57:04.633Z,1016.88
2016-11-25T07:57:45.538Z,1016.85
2016-11-25T07:58:26.343Z,1016.84
2016-11-25T07:59:07.160Z,1016.87
2016-11-25T07:59:48.363Z,1016.87
2016-11-25T08:00:29.368Z,1016.87
2016-11-25T08:01:10.251Z,1016.89
2016-11-25T08:01:51.253Z,1016.92
2016-11-25T08:02:31.912Z,1016.93
2016-11-25T08:03:12.840Z,1016.97
2016-11-25T08:03:53.737Z,1016.95
2016-11-25T08:04:34.593Z,1016.95
2016-11-25T08:05:15.407Z,1016.92
2016-11-25T08:05:56.106Z,1016.92
2016-11-25T08:06:36.863Z,1016.95
2016-11-25T08:07:17.611Z,1016.95
2016-11-25T08:07:58.442Z,1016.96
2016-11-25T08:08:39.176Z,1016.98
2016-11-25T08:09:20.001Z,1017.01
2016-11-25T08:10:00.813Z,1016.98
2016-11-25T08:10:41.536Z,1016.99
2016-11-25T08:11:22.354Z,1016.96
2016-11-25T08:12:03.005Z,1016.99
2016-11-25T08:12:43.938Z,1017.03
2016-11-25T08:13:24.783Z,1017.02
2016-11-25T08:14:05.786Z,1017
2016-11-25T08:14:47.399Z,1017.01
2016-11-25T08:15:28.021Z,1017.02
2016-11-25T08:16:08.845Z,1017.03
2016-11-25T08:16:49.670Z,1017.03
2016-11-25T08:17:30.736Z,1017.01
2016-11-25T08:18:11.619Z,1017.02
2016-11-25T08:18:52.600Z,1017.07
2016-11-25T08:19:33.326Z,1017.02
2016-11-25T08:20:14.194Z,1016.97
2016-11-25T08:20:54.978Z,1016.98
2016-11-25T08:21:35.640Z,1016.99
2016-11-25T08:22:16.471Z,1016.97
2016-11-25T08:24:29.343Z,1017.02
2016-11-25T08:26:21.907Z,1016.97